ポンタ・デルガダ の空港の天気 - METARとTAF

ポンタ・デルガダ空港 ( LPPD / PDL ) - ポルトガル ポンタ・デルガダ (サンミゲル島)
飛行場実況気象(Metar)
観測時間01/19 10:00 AZOT (01/19 11:00 UTC)
風向・風速西 7m/s
視程10km以上
天気現象
少しの雲 雲底高度 210m
全天の8割程度の雲 雲底高度 430m
気温17℃
湿度94%
気圧1029hPa
METARLPPD 191100Z 28014KT 9999 FEW007 BKN014 17/16 Q1029
過去の天気等 Google飛行場航空写真 Wunderground天気予報

過去48時間のMETAR

飛行場予報(TAF)
発表時間: 1/19 04:00 AZOT (1/19 05:00 UTC)
予報対象時間: 19日5時 AZOT ~ 20日5時 AZOT
風向・風速西 8m/s
視程10km以上
少しの雲 雲底高度 240m
全天の4割程度の雲 雲底高度 370m
19日5時 AZOT ~ 19日7時 AZOT に徐々に
風向・風速西北西 8m/s
全天の4割程度の雲 雲底高度 180m
全天の8割程度の雲 雲底高度 370m
19日7時 AZOT ~ 19日12時 AZOT に一時的に
視程3000m
天気現象弱い雨霧雨 もや
全天の4割程度の雲 雲底高度 60m
全天の8割程度の雲 雲底高度 150m
19日12時 AZOT ~ 19日14時 AZOT に徐々に
風向・風速北北東 4m/s
全天の4割程度の雲 雲底高度 370m
全天の4割程度の雲 雲底高度 760m
TAF LPPD 190500Z 1906/2006 27015KT 9999 FEW008 SCT012
BECMG 1906/1908 30015KT SCT006 BKN012
TEMPO 1908/1913 3000 -RADZ BR SCT002 BKN005
BECMG 1913/1915 03008KT SCT012 SCT025